Time;durP1;ratioP1;P1;durP2;ratioP2;P2;SDS_P1;SDS_P2;PMS_P1;PMS_P2;Temp;Humidity;BMP_temperature;BMP_pressure;BME280_temperature;BME280_humidity;BME280_pressure;Samples;Min_cycle;Max_cycle;Signal;HPM_P1;HPM_P2
2023/02/21 02:15:45;;;;;;;0.50;0.50;;;;;;;5.20;79.68;98866.44;5066246;28;20044;-63
2023/02/21 02:18:24;;;;;;;0.50;0.50;;;;;;;5.16;79.11;98867.31;5067212;28;20029;-63
2023/02/21 02:21:04;;;;;;;0.50;0.50;;;;;;;5.15;78.85;98847.59;5067177;28;20029;-66
2023/02/21 02:23:51;;;;;;;0.60;0.60;;;;;;;5.21;78.60;98862.97;5065827;28;20040;-64
2023/02/21 02:27:04;;;;;;;0.50;0.50;;;;;;;5.26;78.75;98862.91;5065833;28;20532;-65
2023/02/21 02:29:47;;;;;;;0.50;0.50;;;;;;;5.24;79.21;98872.38;5043343;28;20101;-64
2023/02/21 02:32:28;;;;;;;0.70;0.70;;;;;;;5.25;79.10;98873.22;5043399;28;20025;-64
2023/02/21 02:35:12;;;;;;;0.50;0.50;;;;;;;5.21;78.84;98883.56;5043414;28;20550;-64
2023/02/21 02:37:46;;;;;;;0.50;0.50;;;;;;;5.20;79.15;98888.72;5043195;28;20025;-64
2023/02/21 02:40:30;;;;;;;0.55;0.55;;;;;;;5.25;79.40;98893.81;5043176;28;20041;-63
2023/02/21 02:43:26;;;;;;;2.35;2.25;;;;;;;5.29;79.14;98895.47;5043268;28;20025;-63
2023/02/21 02:46:06;;;;;;;0.95;0.95;;;;;;;5.26;79.84;98901.50;5043118;28;20071;-64
2023/02/21 02:48:49;;;;;;;0.50;0.50;;;;;;;5.28;79.83;98909.22;5043160;28;20030;-63
2023/02/21 02:51:15;;;;;;;0.50;0.50;;;;;;;5.23;79.67;98905.84;5043128;28;20060;-63
2023/02/21 02:53:41;;;;;;;0.50;0.50;;;;;;;5.28;80.04;98917.81;5042806;28;20048;-63
2023/02/21 02:56:15;;;;;;;1.10;1.10;;;;;;;5.28;79.79;98919.50;5043002;28;20057;-64
2023/02/21 02:58:48;;;;;;;0.50;0.50;;;;;;;5.29;80.09;98923.78;5042698;28;20128;-64
2023/02/21 03:01:52;;;;;;;0.93;0.93;;;;;;;5.21;79.64;98937.59;5042607;28;20025;-64
2023/02/21 03:04:38;;;;;;;0.50;0.50;;;;;;;5.21;79.79;98936.72;5043177;28;20237;-64
2023/02/21 03:07:26;;;;;;;0.60;0.60;;;;;;;5.20;79.70;98933.31;5025734;28;20041;-62
2023/02/21 03:10:07;;;;;;;0.55;0.55;;;;;;;5.21;80.23;98949.59;5025503;28;20026;-64
2023/02/21 03:12:41;;;;;;;1.98;1.88;;;;;;;5.21;79.92;98940.16;5025449;28;20036;-64
2023/02/21 03:15:12;;;;;;;0.90;0.90;;;;;;;5.28;79.47;98956.41;5024458;28;20083;-63
2023/02/21 03:17:45;;;;;;;0.70;0.70;;;;;;;5.25;79.54;98965.88;5025334;28;20036;-63
2023/02/21 03:20:13;;;;;;;0.50;0.50;;;;;;;5.23;79.27;98970.16;5025151;28;20022;-63
2023/02/21 03:22:42;;;;;;;0.50;0.50;;;;;;;5.26;79.32;98977.84;5025158;28;20025;-65
2023/02/21 03:25:08;;;;;;;0.60;0.60;;;;;;;5.26;79.53;98977.84;5025452;28;20022;-64
2023/02/21 03:27:36;;;;;;;0.50;0.50;;;;;;;5.25;79.71;98983.88;5024144;28;20022;-64
2023/02/21 03:30:04;;;;;;;0.60;0.60;;;;;;;5.20;79.87;98999.34;5023845;28;20109;-63
2023/02/21 03:35:00;;;;;;;1.20;1.20;;;;;;;5.25;80.30;98996.75;5025044;28;20018;-64
2023/02/21 03:37:51;;;;;;;0.70;0.70;;;;;;;5.24;80.44;98998.44;5025029;28;20032;-63
2023/02/21 03:40:28;;;;;;;0.50;0.50;;;;;;;5.25;81.04;99007.03;5025145;28;20033;-64
2023/02/21 03:42:54;;;;;;;0.60;0.60;;;;;;;5.27;81.01;99015.59;5023719;28;20048;-64
2023/02/21 03:45:20;;;;;;;0.98;0.98;;;;;;;5.23;81.48;99008.75;5024964;28;20033;-64
2023/02/21 03:47:45;;;;;;;0.80;0.80;;;;;;;5.32;81.55;99019.81;5025011;28;20427;-64
2023/02/21 03:50:11;;;;;;;0.60;0.60;;;;;;;5.30;81.55;99036.16;5024954;28;20026;-64
2023/02/21 03:52:37;;;;;;;0.50;0.50;;;;;;;5.28;81.13;99010.44;5024930;28;20026;-64
2023/02/21 03:55:02;;;;;;;0.93;0.93;;;;;;;5.28;81.06;99027.59;5024970;28;20026;-64
2023/02/21 03:57:28;;;;;;;0.63;0.63;;;;;;;5.28;80.93;99027.59;5042467;28;20036;-65
2023/02/21 03:59:53;;;;;;;0.57;0.57;;;;;;;5.31;81.21;99048.16;5064681;28;20025;-64
2023/02/21 04:02:19;;;;;;;0.50;0.50;;;;;;;5.35;81.60;99055.00;5064518;28;20421;-64
2023/02/21 04:04:47;;;;;;;0.55;0.55;;;;;;;5.32;81.43;99067.84;5064697;28;20043;-64
2023/02/21 04:07:13;;;;;;;0.55;0.55;;;;;;;5.31;81.31;99068.75;5064306;28;20084;-64
2023/02/21 04:09:38;;;;;;;0.50;0.50;;;;;;;5.30;80.41;99070.44;5064646;28;20428;-64
2023/02/21 04:12:04;;;;;;;0.50;0.50;;;;;;;5.31;80.42;99079.91;5064461;28;20037;-63
2023/02/21 04:14:30;;;;;;;1.65;1.55;;;;;;;5.38;79.93;99096.16;5064558;28;20025;-62
2023/02/21 04:16:55;;;;;;;0.60;0.60;;;;;;;5.39;80.56;99097.84;5064524;28;20029;-63
2023/02/21 04:19:21;;;;;;;0.50;0.50;;;;;;;5.35;80.54;99092.75;5064396;28;20057;-62
2023/02/21 04:21:46;;;;;;;0.52;0.52;;;;;;;5.43;81.00;99114.13;5064042;28;20024;-64
2023/02/21 04:24:12;;;;;;;0.60;0.60;;;;;;;5.40;81.24;99106.44;5064529;28;20037;-63
2023/02/21 04:26:37;;;;;;;0.45;0.45;;;;;;;5.38;81.04;99123.59;5066499;28;20033;-63
2023/02/21 04:29:04;;;;;;;0.60;0.60;;;;;;;5.38;81.38;99116.75;5066845;28;20126;-67
2023/02/21 04:31:31;;;;;;;0.55;0.55;;;;;;;5.36;81.01;99131.34;5068081;28;20021;-64
2023/02/21 04:33:57;;;;;;;0.50;0.50;;;;;;;5.35;81.25;99137.34;5068106;28;20071;-63
2023/02/21 04:36:22;;;;;;;0.75;0.75;;;;;;;5.30;81.85;99119.34;5067899;28;20021;-62
2023/02/21 04:38:49;;;;;;;0.50;0.50;;;;;;;5.31;81.47;99133.94;5067958;28;20492;-63
2023/02/21 04:41:15;;;;;;;0.50;0.50;;;;;;;5.29;81.49;99134.78;5067857;28;20033;-62
2023/02/21 04:43:42;;;;;;;0.50;0.50;;;;;;;5.25;81.30;99143.41;5067896;28;20115;-62
2023/02/21 04:46:08;;;;;;;0.50;0.50;;;;;;;5.25;81.45;99136.56;5069058;28;20020;-63
2023/02/21 04:48:33;;;;;;;0.50;0.50;;;;;;;5.26;81.25;99143.41;5067976;28;20021;-65
2023/02/21 04:50:59;;;;;;;0.50;0.50;;;;;;;5.25;81.73;99146.00;5067719;28;20017;-63
2023/02/21 04:53:24;;;;;;;0.52;0.52;;;;;;;5.27;82.23;99145.09;5067767;28;20033;-63
2023/02/21 04:55:49;;;;;;;0.50;0.50;;;;;;;5.27;82.21;99139.13;5067626;28;20041;-63
2023/02/21 04:58:15;;;;;;;0.50;0.50;;;;;;;5.26;82.58;99158.84;5067476;28;20048;-63
2023/02/21 05:00:41;;;;;;;0.50;0.50;;;;;;;5.27;81.68;99159.72;5067353;28;20036;-62
2023/02/21 05:03:06;;;;;;;0.60;0.60;;;;;;;5.30;81.67;99180.28;5067746;28;20021;-63
2023/02/21 05:05:31;;;;;;;0.50;0.50;;;;;;;5.31;82.03;99179.41;5067454;28;20032;-63
2023/02/21 05:07:57;;;;;;;0.50;0.50;;;;;;;5.32;82.48;99184.53;5067267;28;20025;-62
2023/02/21 05:10:22;;;;;;;0.50;0.50;;;;;;;5.28;82.69;99184.56;5067389;28;20047;-63
2023/02/21 05:12:48;;;;;;;0.50;0.50;;;;;;;5.28;82.82;99195.72;5067435;28;20048;-63
2023/02/21 05:15:14;;;;;;;0.95;0.95;;;;;;;5.26;83.10;99192.31;5067307;28;20032;-63
2023/02/21 05:17:39;;;;;;;0.60;0.60;;;;;;;5.28;83.02;99200.00;5067250;28;20469;-63
2023/02/21 05:20:10;;;;;;;0.73;0.73;;;;;;;5.25;82.72;99202.59;5067072;28;20021;-63
2023/02/21 05:22:40;;;;;;;0.50;0.50;;;;;;;5.24;82.83;99208.63;5067198;28;20100;-64
2023/02/21 05:25:20;;;;;;;0.50;0.50;;;;;;;5.21;83.21;99212.06;5067325;28;20028;-64
2023/02/21 05:27:46;;;;;;;0.50;0.50;;;;;;;5.24;83.15;99218.91;5067066;28;20025;-63
2023/02/21 05:30:14;;;;;;;0.50;0.50;;;;;;;5.24;83.45;99221.50;5065855;28;20075;-63
2023/02/21 05:32:40;;;;;;;0.50;0.50;;;;;;;5.16;83.16;99214.66;5066925;28;20021;-63
2023/02/21 05:35:05;;;;;;;0.50;0.50;;;;;;;5.16;83.26;99229.25;5066714;28;20063;-64
2023/02/21 05:37:31;;;;;;;0.50;0.50;;;;;;;5.21;83.44;99232.63;5065608;28;20048;-64
2023/02/21 05:39:56;;;;;;;0.50;0.50;;;;;;;5.15;83.71;99250.69;5066497;28;20028;-63
2023/02/21 05:42:22;;;;;;;0.50;0.50;;;;;;;5.12;83.25;99256.72;5067031;28;20534;-64
2023/02/21 05:44:47;;;;;;;0.50;0.50;;;;;;;5.14;82.81;99259.28;5066923;28;20420;-64
2023/02/21 05:47:13;;;;;;;0.50;0.50;;;;;;;5.07;82.86;99267.03;5066876;28;20026;-64
2023/02/21 05:49:40;;;;;;;0.50;0.50;;;;;;;5.05;83.24;99273.00;5066802;28;20050;-64
2023/02/21 05:52:08;;;;;;;0.50;0.50;;;;;;;5.05;83.60;99283.31;5048633;28;20021;-64
2023/02/21 05:54:33;;;;;;;0.50;0.50;;;;;;;5.06;83.46;99295.34;5067114;28;20017;-64
2023/02/21 05:56:59;;;;;;;0.50;0.50;;;;;;;5.04;83.76;99292.75;5066736;28;20075;-64
2023/02/21 05:59:25;;;;;;;0.60;0.60;;;;;;;5.09;84.10;99303.03;5066688;28;20088;-65
2023/02/21 06:01:50;;;;;;;0.50;0.50;;;;;;;5.10;84.50;99317.59;5065442;28;20508;-64
2023/02/21 06:04:16;;;;;;;0.50;0.50;;;;;;;5.10;84.71;99317.59;5066295;28;20036;-63
2023/02/21 06:06:42;;;;;;;0.50;0.50;;;;;;;5.06;85.11;99321.88;5066301;28;20047;-63
2023/02/21 06:09:08;;;;;;;0.50;0.50;;;;;;;5.07;85.15;99340.75;5066820;28;20051;-64
2023/02/21 06:11:36;;;;;;;0.50;0.50;;;;;;;5.06;85.14;99334.75;5066618;28;20039;-64
2023/02/21 06:14:04;;;;;;;0.50;0.50;;;;;;;5.00;85.09;99336.50;5066626;28;20033;-64
2023/02/21 06:16:34;;;;;;;0.50;0.50;;;;;;;4.98;84.92;99345.94;5066470;28;20040;-63
2023/02/21 06:19:00;;;;;;;0.50;0.50;;;;;;;4.92;85.39;99350.22;5066450;28;20044;-63
2023/02/21 06:21:26;;;;;;;0.50;0.50;;;;;;;4.96;85.50;99351.09;5064591;28;20051;-64
2023/02/21 06:23:51;;;;;;;0.50;0.50;;;;;;;4.95;85.10;99352.78;5066252;28;20044;-63
2023/02/21 06:26:18;;;;;;;0.50;0.50;;;;;;;4.98;85.48;99369.09;5066282;28;20028;-63
2023/02/21 06:28:44;;;;;;;1.40;1.40;;;;;;;4.93;85.62;99377.69;5064719;28;20401;-65
2023/02/21 06:31:09;;;;;;;0.52;0.52;;;;;;;4.95;85.66;99383.66;5065907;28;20028;-64
2023/02/21 06:33:35;;;;;;;2.53;2.38;;;;;;;4.95;85.74;99378.53;5066245;28;20029;-64
2023/02/21 06:36:05;;;;;;;0.50;0.50;;;;;;;4.91;85.88;99373.38;5065491;28;20017;-61
2023/02/21 06:38:30;;;;;;;0.50;0.50;;;;;;;4.94;85.40;99379.38;5065764;28;20044;-62
2023/02/21 06:40:56;;;;;;;0.50;0.50;;;;;;;5.00;85.92;99393.09;5065572;28;20021;-63
2023/02/21 06:43:21;;;;;;;0.50;0.50;;;;;;;5.00;85.97;99390.53;5064355;28;20348;-62
2023/02/21 06:45:46;;;;;;;0.50;0.50;;;;;;;5.00;86.12;99390.53;5065586;28;20081;-63
2023/02/21 06:48:15;;;;;;;0.50;0.50;;;;;;;4.98;85.62;99408.53;5065447;28;20036;-62
2023/02/21 06:50:41;;;;;;;0.50;0.50;;;;;;;4.98;85.44;99412.81;5065400;28;20427;-63
2023/02/21 06:53:06;;;;;;;0.50;0.50;;;;;;;4.99;85.07;99412.81;5065290;28;20544;-62
2023/02/21 06:55:32;;;;;;;0.50;0.50;;;;;;;5.02;85.33;99419.66;5065700;28;20020;-62
2023/02/21 06:57:58;;;;;;;0.55;0.55;;;;;;;5.07;85.23;99425.66;5065350;28;20114;-62
2023/02/21 07:00:25;;;;;;;0.50;0.50;;;;;;;5.12;85.33;99434.25;5065483;28;20027;-62
2023/02/21 07:02:51;;;;;;;0.50;0.50;;;;;;;5.17;85.97;99441.94;5065333;28;20088;-62
2023/02/21 07:05:17;;;;;;;0.50;0.50;;;;;;;5.13;85.35;99446.22;5065408;28;20021;-62
2023/02/21 07:07:43;;;;;;;0.45;0.45;;;;;;;5.23;86.04;99449.66;5065341;28;20092;-63
2023/02/21 07:10:08;;;;;;;0.55;0.55;;;;;;;5.20;85.88;99455.69;5065520;28;20487;-63
2023/02/21 07:12:34;;;;;;;0.50;0.50;;;;;;;5.30;86.30;99468.53;5066076;28;20064;-63
2023/02/21 07:14:59;;;;;;;0.50;0.50;;;;;;;5.40;86.41;99480.50;5065691;28;20028;-63
2023/02/21 07:17:24;;;;;;;0.50;0.50;;;;;;;5.57;86.94;99492.50;5065346;28;20025;-62
2023/02/21 07:19:50;;;;;;;0.40;0.40;;;;;;;5.95;87.57;99491.50;5063738;28;20025;-62
2023/02/21 07:22:15;;;;;;;0.50;0.50;;;;;;;6.53;88.26;99505.84;5064973;28;20029;-62
2023/02/21 07:24:41;;;;;;;0.40;0.40;;;;;;;7.15;88.30;99510.53;5065294;28;20106;-62
2023/02/21 07:27:06;;;;;;;0.80;0.80;;;;;;;7.80;88.52;99509.03;5065123;28;20027;-62
2023/02/21 07:29:31;;;;;;;0.45;0.45;;;;;;;8.40;90.20;99516.88;5065120;28;20037;-62
2023/02/21 07:31:57;;;;;;;0.50;0.50;;;;;;;8.83;91.51;99512.00;5064860;28;20057;-62
2023/02/21 07:34:22;;;;;;;0.40;0.40;;;;;;;9.32;92.67;99518.97;5065218;28;20032;-63
2023/02/21 07:36:49;;;;;;;0.30;0.30;;;;;;;9.77;94.06;99520.75;5064779;28;20033;-62
2023/02/21 07:39:14;;;;;;;0.50;0.50;;;;;;;10.13;95.42;99528.66;5063845;28;20025;-62
2023/02/21 07:41:40;;;;;;;0.40;0.40;;;;;;;10.51;95.58;99546.09;5063504;28;20032;-62
2023/02/21 07:44:06;;;;;;;0.80;0.80;;;;;;;10.89;95.66;99554.72;5065087;28;20431;-62
2023/02/21 07:46:33;;;;;;;0.40;0.40;;;;;;;11.19;94.35;99555.75;5063493;28;20036;-62
2023/02/21 07:48:59;;;;;;;0.40;0.40;;;;;;;11.34;93.18;99568.38;5064899;28;20476;-62
2023/02/21 07:51:29;;;;;;;0.30;0.30;;;;;;;11.64;94.74;99578.91;5064432;28;20085;-63
2023/02/21 07:53:54;;;;;;;0.40;0.40;;;;;;;11.62;88.38;99578.06;5064650;28;20082;-62
2023/02/21 07:56:20;;;;;;;0.40;0.40;;;;;;;11.82;91.21;99583.63;5064794;28;20021;-62
2023/02/21 07:58:46;;;;;;;0.30;0.30;;;;;;;11.87;88.22;99597.34;5063326;28;20115;-61
2023/02/21 08:01:11;;;;;;;0.32;0.32;;;;;;;11.76;84.26;99597.63;5066161;28;20031;-61
2023/02/21 08:03:36;;;;;;;0.30;0.30;;;;;;;11.42;79.75;99585.53;5068905;28;20045;-63
2023/02/21 08:06:03;;;;;;;0.52;0.52;;;;;;;11.04;74.33;99604.59;5068694;28;20033;-62
2023/02/21 08:08:29;;;;;;;0.40;0.40;;;;;;;10.61;72.50;99601.22;5068590;28;20021;-62
2023/02/21 08:10:54;;;;;;;0.40;0.40;;;;;;;10.37;71.87;99593.91;5068638;28;20027;-63
2023/02/21 08:13:20;;;;;;;0.40;0.40;;;;;;;10.41;72.40;99611.09;5067420;28;20016;-63
2023/02/21 08:15:45;;;;;;;0.50;0.50;;;;;;;10.78;73.22;99619.88;5068437;28;20047;-62
2023/02/21 08:18:18;;;;;;;0.45;0.45;;;;;;;11.24;72.02;99617.13;5068632;28;20040;-63
2023/02/21 08:20:43;;;;;;;0.40;0.40;;;;;;;11.49;68.39;99624.31;5068560;28;20026;-63
2023/02/21 08:23:09;;;;;;;0.40;0.40;;;;;;;11.56;65.97;99625.03;5068195;28;20028;-63
2023/02/21 08:25:34;;;;;;;0.40;0.40;;;;;;;11.38;64.41;99624.59;5068417;28;20033;-63
2023/02/21 08:27:59;;;;;;;0.40;0.40;;;;;;;11.39;65.60;99623.69;5068291;28;20029;-63
2023/02/21 08:30:25;;;;;;;0.40;0.40;;;;;;;11.49;65.27;99645.13;5068289;28;20267;-62
2023/02/21 08:32:50;;;;;;;0.50;0.50;;;;;;;11.49;63.20;99647.72;5068170;28;20017;-62
2023/02/21 08:35:18;;;;;;;0.40;0.40;;;;;;;11.64;64.59;99662.09;5068198;28;20032;-63
2023/02/21 08:37:48;;;;;;;0.40;0.40;;;;;;;12.03;64.74;99668.91;5067800;28;20021;-62
2023/02/21 08:40:17;;;;;;;0.38;0.38;;;;;;;12.23;63.17;99675.34;5068100;28;20024;-62
2023/02/21 08:42:47;;;;;;;0.40;0.40;;;;;;;12.58;64.69;99672.66;5067942;28;20031;-62
2023/02/21 08:45:16;;;;;;;0.40;0.40;;;;;;;12.95;63.34;99675.06;5068026;28;20392;-63
2023/02/21 08:47:42;;;;;;;0.40;0.40;;;;;;;12.83;59.73;99674.53;5067935;28;20166;-62
2023/02/21 08:50:08;;;;;;;0.40;0.40;;;;;;;12.69;59.49;99648.03;5066519;28;20025;-62
2023/02/21 08:52:33;;;;;;;0.40;0.40;;;;;;;12.52;58.86;99670.22;5066043;28;20021;-62
2023/02/21 08:54:58;;;;;;;0.40;0.40;;;;;;;12.71;60.53;99665.34;5067936;28;20025;-62
2023/02/21 08:57:24;;;;;;;18.88;1.30;;;;;;;13.07;58.75;99672.09;5067429;28;20049;-64
2023/02/21 08:59:49;;;;;;;0.40;0.40;;;;;;;13.04;54.40;99663.50;5067638;28;20040;-64
2023/02/21 09:02:17;;;;;;;0.30;0.30;;;;;;;12.76;56.29;99679.06;5067439;28;20021;-62
2023/02/21 09:04:44;;;;;;;0.40;0.40;;;;;;;12.98;57.91;99688.00;5067482;28;20116;-63
2023/02/21 09:07:13;;;;;;;0.40;0.40;;;;;;;13.13;55.52;99694.53;5067240;28;20031;-62
2023/02/21 09:09:39;;;;;;;0.40;0.40;;;;;;;13.46;56.33;99693.50;5067668;28;20047;-61
2023/02/21 09:12:08;;;;;;;0.40;0.40;;;;;;;13.90;56.61;99697.34;5065180;28;20067;-61
2023/02/21 09:14:37;;;;;;;0.40;0.40;;;;;;;14.30;57.72;99702.94;5067617;28;20032;-61
2023/02/21 09:17:05;;;;;;;0.30;0.30;;;;;;;14.66;55.38;99710.38;5050046;28;20453;-61
2023/02/21 09:19:30;;;;;;;0.47;0.47;;;;;;;14.46;51.51;99698.00;5067353;28;20033;-63
2023/02/21 09:21:56;;;;;;;0.35;0.35;;;;;;;13.80;46.26;99683.75;5067082;28;20032;-60
2023/02/21 09:24:26;;;;;;;0.30;0.30;;;;;;;12.95;47.29;99716.75;5067651;28;20028;-60
2023/02/21 09:26:54;;;;;;;0.40;0.40;;;;;;;12.62;46.98;99728.94;5067277;28;20028;-62
2023/02/21 09:29:21;;;;;;;0.40;0.40;;;;;;;12.34;48.80;99726.25;5067421;28;20075;-60
2023/02/21 09:31:47;;;;;;;0.40;0.40;;;;;;;12.40;50.59;99752.13;5067132;28;20028;-61
2023/02/21 09:34:12;;;;;;;0.40;0.40;;;;;;;12.50;48.47;99739.72;5067154;28;20111;-62
2023/02/21 09:36:38;;;;;;;0.40;0.40;;;;;;;12.24;46.59;99749.06;5067181;28;20078;-60
2023/02/21 09:39:05;;;;;;;0.30;0.30;;;;;;;12.06;50.75;99748.59;5067219;28;20029;-61
2023/02/21 09:41:32;;;;;;;0.40;0.40;;;;;;;12.30;50.22;99767.13;5066955;28;20155;-63
2023/02/21 09:43:59;;;;;;;0.40;0.40;;;;;;;12.44;47.97;99745.94;5067161;28;20215;-61
2023/02/21 09:46:47;;;;;;;0.40;0.40;;;;;;;12.38;49.94;99754.75;5065664;28;20031;-61
2023/02/21 09:49:22;;;;;;;0.40;0.40;;;;;;;13.16;51.22;99762.19;5066973;28;20040;-61
2023/02/21 09:51:49;;;;;;;0.40;0.40;;;;;;;13.35;47.00;99767.72;5066686;28;20126;-61
2023/02/21 09:54:29;;;;;;;0.40;0.40;;;;;;;13.19;46.04;99779.47;5066675;28;20025;-61
2023/02/21 09:56:58;;;;;;;0.30;0.30;;;;;;;13.36;47.63;99779.84;5066551;28;20049;-61
2023/02/21 09:59:25;;;;;;;0.40;0.40;;;;;;;13.51;49.26;99801.16;5066815;28;20051;-61
2023/02/21 10:01:53;;;;;;;0.40;0.40;;;;;;;13.77;46.61;99785.59;5066325;28;20017;-62
2023/02/21 10:04:49;;;;;;;0.40;0.40;;;;;;;13.59;42.95;99791.34;5066636;28;20032;-60
2023/02/21 10:07:18;;;;;;;0.40;0.40;;;;;;;13.13;43.80;99789.19;5066234;28;20025;-60
2023/02/21 10:09:54;;;;;;;2.25;2.05;;;;;;;13.44;44.52;99786.56;5066601;28;20080;-61
2023/02/21 10:12:42;;;;;;;0.40;0.40;;;;;;;13.73;42.00;99787.44;5065259;28;20025;-61
2023/02/21 10:15:13;;;;;;;0.40;0.40;;;;;;;13.81;40.37;99784.59;5066480;28;20023;-63
2023/02/21 10:17:43;;;;;;;0.40;0.40;;;;;;;13.59;40.24;99793.97;5066318;28;20116;-62
2023/02/21 10:20:38;;;;;;;0.40;0.40;;;;;;;13.84;39.68;99808.84;5065006;28;20028;-62
2023/02/21 10:23:23;;;;;;;0.40;0.40;;;;;;;14.28;39.86;99817.03;5065146;28;20033;-61
2023/02/21 10:25:55;;;;;;;0.40;0.40;;;;;;;14.83;39.69;99822.13;5066109;28;20084;-62
2023/02/21 10:28:22;;;;;;;;;;;;;;;15.52;37.96;99819.63;5065061;28;20045;-62
2023/02/21 10:30:51;;;;;;;0.30;0.30;;;;;;;15.83;35.60;99821.03;5066147;28;19909;-61
2023/02/21 10:33:16;;;;;;;0.40;0.40;;;;;;;15.96;36.76;99828.38;5066152;28;20499;-61
2023/02/21 10:35:42;;;;;;;0.30;0.30;;;;;;;16.38;37.04;99844.19;5065999;28;20021;-61
2023/02/21 10:38:11;;;;;;;0.30;0.30;;;;;;;17.09;36.92;99849.03;5065655;28;20025;-59
2023/02/21 10:40:45;;;;;;;0.40;0.40;;;;;;;17.28;33.39;99842.13;5065932;28;20017;-60
2023/02/21 10:43:31;;;;;;;0.30;0.30;;;;;;;16.48;33.21;99867.31;5065884;28;20047;-60
2023/02/21 10:45:58;;;;;;;0.30;0.30;;;;;;;15.90;34.70;99868.75;5065718;28;20017;-60
2023/02/21 10:48:29;;;;;;;0.30;0.30;;;;;;;15.57;34.51;99867.41;5065581;28;20037;-61
2023/02/21 10:51:16;;;;;;;0.40;0.40;;;;;;;15.38;37.20;99871.59;5064287;28;20049;-62
2023/02/21 10:53:44;;;;;;;0.30;0.30;;;;;;;14.94;34.06;99883.59;5065635;28;20049;-61
2023/02/21 10:56:19;;;;;;;0.40;0.40;;;;;;;13.99;34.56;99895.38;5065673;28;20036;-60
2023/02/21 10:59:06;;;;;;;0.40;0.40;;;;;;;13.29;35.76;99907.78;5065411;28;20053;-61
2023/02/21 11:01:35;;;;;;;0.40;0.40;;;;;;;13.00;37.01;99915.50;5065549;28;20025;-60
2023/02/21 11:04:03;;;;;;;0.40;0.40;;;;;;;13.08;37.50;99907.50;5065704;28;20085;-60
2023/02/21 11:06:30;;;;;;;0.40;0.40;;;;;;;13.39;38.64;99901.41;5065398;28;20048;-60
2023/02/21 11:08:56;;;;;;;0.40;0.40;;;;;;;13.68;33.97;99899.75;5065308;28;20031;-59
2023/02/21 11:11:34;;;;;;;0.40;0.40;;;;;;;13.14;35.28;99916.00;5065208;28;20024;-60
2023/02/21 11:14:29;;;;;;;0.32;0.32;;;;;;;13.12;35.69;99929.94;5065314;28;20025;-59
2023/02/21 11:17:12;;;;;;;0.35;0.35;;;;;;;13.06;34.52;99946.63;5060096;28;20048;-59
2023/02/21 11:20:15;;;;;;;0.40;0.40;;;;;;;13.36;36.20;99946.69;5065209;28;20025;-60
2023/02/21 11:22:43;;;;;;;0.30;0.30;;;;;;;13.58;35.70;99951.31;5064949;28;20066;-60
2023/02/21 11:25:23;;;;;;;0.40;0.40;;;;;;;13.81;34.43;99957.66;5065148;28;20415;-61
2023/02/21 11:28:05;;;;;;;0.40;0.40;;;;;;;14.12;36.89;99959.31;5063685;28;20057;-60
2023/02/21 11:30:34;;;;;;;0.30;0.30;;;;;;;14.56;34.44;99965.81;5065111;28;20074;-59
2023/02/21 11:33:00;;;;;;;0.35;0.35;;;;;;;15.03;36.41;99971.31;5064943;28;20081;-61
2023/02/21 11:35:26;;;;;;;0.30;0.30;;;;;;;15.29;34.90;99973.03;5064292;28;20060;-60
2023/02/21 11:38:01;;;;;;;7.05;2.78;;;;;;;15.51;34.81;99974.84;5064645;28;20025;-59
2023/02/21 11:40:31;;;;;;;0.40;0.40;;;;;;;15.36;34.57;99974.53;5065208;28;20396;-60
2023/02/21 11:43:20;;;;;;;0.40;0.40;;;;;;;15.27;35.92;99980.06;5065221;28;20116;-60
2023/02/21 11:46:19;;;;;;;0.38;0.38;;;;;;;15.16;34.33;99977.00;5065010;28;20069;-60
2023/02/21 11:48:56;;;;;;;0.40;0.40;;;;;;;14.25;35.12;99978.09;5065038;28;20020;-60
2023/02/21 11:51:48;;;;;;;0.40;0.40;;;;;;;13.84;33.92;99977.56;5064788;28;20025;-60
2023/02/21 11:54:14;;;;;;;0.40;0.40;;;;;;;13.41;32.62;99992.63;5063319;28;20047;-62
2023/02/21 11:57:03;;;;;;;0.32;0.32;;;;;;;12.19;34.14;99996.41;5064640;28;20025;-62
2023/02/21 11:59:29;;;;;;;0.40;0.40;;;;;;;10.69;34.99;100004.31;5064918;28;20029;-60
2023/02/21 12:02:11;;;;;;;0.47;0.47;;;;;;;9.49;36.97;100009.25;5063097;28;20044;-61
2023/02/21 12:04:49;;;;;;;0.50;0.50;;;;;;;8.49;37.91;100014.34;5064802;28;20021;-61
2023/02/21 12:07:37;;;;;;;0.50;0.50;;;;;;;7.65;38.90;100024.16;5066247;28;20016;-60
2023/02/21 12:10:29;;;;;;;0.40;0.40;;;;;;;7.15;40.69;100031.13;5065146;28;20076;-60
2023/02/21 12:13:15;;;;;;;0.50;0.50;;;;;;;6.78;41.13;100031.97;5064364;28;20041;-60
2023/02/21 12:16:04;;;;;;;0.50;0.50;;;;;;;6.52;41.92;100040.53;5064747;28;20063;-60
2023/02/21 12:18:58;;;;;;;0.40;0.40;;;;;;;6.23;42.83;100039.59;5060569;28;20109;-61
2023/02/21 12:21:33;;;;;;;0.50;0.50;;;;;;;6.13;43.38;100050.72;5064566;28;20050;-60
2023/02/21 12:24:28;;;;;;;0.50;0.50;;;;;;;6.03;43.94;100053.22;5064420;28;20523;-60
2023/02/21 12:27:21;;;;;;;0.50;0.50;;;;;;;5.93;43.96;100057.47;5064364;28;20033;-60
2023/02/21 12:29:51;;;;;;;0.50;0.50;;;;;;;5.79;44.58;100059.97;5063561;28;20029;-60
2023/02/21 12:32:23;;;;;;;0.50;0.50;;;;;;;5.76;44.90;100066.81;5064303;28;20036;-61
2023/02/21 12:35:10;;;;;;;0.60;0.60;;;;;;;5.72;44.97;100067.66;5064546;28;20361;-60
2023/02/21 12:38:06;;;;;;;0.50;0.50;;;;;;;5.62;44.83;100059.88;5064280;28;20485;-60
2023/02/21 12:41:03;;;;;;;0.50;0.50;;;;;;;5.52;44.44;100079.56;5064683;28;20079;-61
2023/02/21 12:44:02;;;;;;;0.60;0.60;;;;;;;5.42;45.49;100080.31;5063075;28;20029;-60
2023/02/21 12:46:35;;;;;;;0.50;0.50;;;;;;;5.36;45.96;100083.72;5064814;28;20026;-60
2023/02/21 12:49:00;;;;;;;0.50;0.50;;;;;;;5.49;45.17;100094.13;5068167;28;20028;-61
2023/02/21 12:51:32;;;;;;;0.50;0.50;;;;;;;5.41;45.78;100097.50;5067845;28;20013;-60
2023/02/21 12:54:11;;;;;;;0.50;0.50;;;;;;;5.44;45.99;100105.25;5067631;28;20056;-61
2023/02/21 12:56:40;;;;;;;0.50;0.50;;;;;;;5.41;45.30;100110.38;5067744;28;20377;-60
2023/02/21 12:59:16;;;;;;;0.50;0.50;;;;;;;5.25;46.13;100108.50;5067712;28;20029;-61
2023/02/21 13:02:21;;;;;;;0.50;0.50;;;;;;;5.23;46.19;100134.25;5067573;28;20025;-60
2023/02/21 13:04:55;;;;;;;0.55;0.55;;;;;;;5.32;45.95;100126.59;5067641;28;20081;-61
2023/02/21 13:07:24;;;;;;;0.50;0.50;;;;;;;5.15;45.68;100133.31;5067235;28;20044;-59
2023/02/21 13:10:17;;;;;;;0.50;0.50;;;;;;;4.92;46.62;100132.22;5067735;28;20025;-59
2023/02/21 13:12:49;;;;;;;0.50;0.50;;;;;;;4.88;46.40;100139.91;5067519;28;20025;-60
2023/02/21 13:15:20;;;;;;;0.60;0.60;;;;;;;4.86;46.75;100147.59;5067497;28;20425;-60
2023/02/21 13:17:55;;;;;;;0.50;0.50;;;;;;;4.84;46.24;100175.00;5067503;28;20078;-60
2023/02/21 13:20:24;;;;;;;0.50;0.50;;;;;;;4.73;46.28;100167.16;5067292;28;20036;-61
2023/02/21 13:26:32;;;;;;;0.60;0.60;;;;;;;4.53;46.56;100175.53;5067499;28;20095;-61
2023/02/21 13:28:58;;;;;;;0.50;0.50;;;;;;;4.54;46.01;100161.81;5067259;28;20441;-61
2023/02/21 13:31:36;;;;;;;0.60;0.60;;;;;;;4.46;46.60;100164.28;5067122;28;20032;-61
2023/02/21 13:34:06;;;;;;;0.50;0.50;;;;;;;4.25;46.79;100172.56;5067234;28;20025;-61
2023/02/21 13:36:37;;;;;;;0.50;0.50;;;;;;;4.26;47.20;100187.16;5066805;28;20029;-60
2023/02/21 13:39:08;;;;;;;0.70;0.70;;;;;;;4.18;47.05;100189.63;5066856;28;20025;-60
2023/02/21 13:41:48;;;;;;;0.70;0.70;;;;;;;4.10;47.52;100180.94;5066763;28;20051;-60
2023/02/21 13:44:32;;;;;;;0.50;0.50;;;;;;;4.06;47.68;100181.72;5067093;28;20070;-61
2023/02/21 13:47:12;;;;;;;0.50;0.50;;;;;;;4.09;47.71;100198.03;5067065;28;20025;-60
2023/02/21 13:49:47;;;;;;;0.60;0.60;;;;;;;4.14;47.66;100202.41;5066963;28;20357;-60
2023/02/21 13:52:48;;;;;;;0.60;0.60;;;;;;;4.04;48.05;100203.97;5066651;28;20025;-61
2023/02/21 13:55:14;;;;;;;0.50;0.50;;;;;;;4.00;48.34;100197.91;5066836;28;20031;-59
2023/02/21 13:57:40;;;;;;;0.60;0.60;;;;;;;3.91;48.91;100201.22;5066531;28;20073;-59
2023/02/21 14:00:24;;;;;;;0.60;0.60;;;;;;;3.99;48.79;100210.72;5065976;28;20044;-60
2023/02/21 14:03:08;;;;;;;0.60;0.60;;;;;;;3.88;49.02;100211.44;5066496;28;20051;-61
2023/02/21 14:05:43;;;;;;;0.50;0.50;;;;;;;3.75;49.19;100217.19;5066604;28;20025;-61
2023/02/21 14:08:23;;;;;;;0.60;0.60;;;;;;;3.67;49.72;100217.94;5066364;28;20081;-60
2023/02/21 14:10:52;;;;;;;0.50;0.50;;;;;;;3.69;49.47;100215.41;5066644;28;20025;-60
2023/02/21 14:13:29;;;;;;;0.60;0.60;;;;;;;3.66;49.75;100229.03;5066261;28;20084;-61
2023/02/21 14:16:08;;;;;;;0.50;0.50;;;;;;;3.56;50.14;100228.00;5066382;28;20404;-60
2023/02/21 14:18:43;;;;;;;0.50;0.50;;;;;;;3.52;50.10;100228.81;5066334;28;20025;-60